sensor_id;sensor_type;location;lat;lon;timestamp;temperature;humidity
12115;DHT22;6121;49.810;6.418;2022-08-03T00:01:34;19.40;99.90
12115;DHT22;6121;49.810;6.418;2022-08-03T00:03:59;19.40;99.90
12115;DHT22;6121;49.810;6.418;2022-08-03T00:06:25;19.50;99.90
12115;DHT22;6121;49.810;6.418;2022-08-03T00:08:51;19.50;99.90
12115;DHT22;6121;49.810;6.418;2022-08-03T00:11:17;19.40;99.90
12115;DHT22;6121;49.810;6.418;2022-08-03T00:13:42;19.40;99.90
12115;DHT22;6121;49.810;6.418;2022-08-03T00:16:09;19.40;99.90
12115;DHT22;6121;49.810;6.418;2022-08-03T00:18:36;19.40;99.90
12115;DHT22;6121;49.810;6.418;2022-08-03T00:21:03;19.40;99.90
12115;DHT22;6121;49.810;6.418;2022-08-03T00:23:29;19.50;99.90
12115;DHT22;6121;49.810;6.418;2022-08-03T00:25:55;19.30;99.90
12115;DHT22;6121;49.810;6.418;2022-08-03T00:28:21;19.40;99.90
12115;DHT22;6121;49.810;6.418;2022-08-03T00:30:47;19.40;99.90
12115;DHT22;6121;49.810;6.418;2022-08-03T00:33:12;19.20;99.90
12115;DHT22;6121;49.810;6.418;2022-08-03T00:35:38;19.00;99.90
12115;DHT22;6121;49.810;6.418;2022-08-03T00:38:04;18.90;99.90
12115;DHT22;6121;49.810;6.418;2022-08-03T00:40:31;18.90;99.90
12115;DHT22;6121;49.810;6.418;2022-08-03T00:43:02;19.00;99.90
12115;DHT22;6121;49.810;6.418;2022-08-03T00:45:33;19.10;99.90
12115;DHT22;6121;49.810;6.418;2022-08-03T00:48:00;19.30;99.90
12115;DHT22;6121;49.810;6.418;2022-08-03T00:50:27;19.10;99.90
12115;DHT22;6121;49.810;6.418;2022-08-03T00:52:56;18.70;99.90
12115;DHT22;6121;49.810;6.418;2022-08-03T00:55:23;18.70;99.90
12115;DHT22;6121;49.810;6.418;2022-08-03T00:57:49;18.80;99.90
12115;DHT22;6121;49.810;6.418;2022-08-03T01:00:18;18.80;99.90
12115;DHT22;6121;49.810;6.418;2022-08-03T01:02:44;18.80;99.90
12115;DHT22;6121;49.810;6.418;2022-08-03T01:05:10;18.80;99.90
12115;DHT22;6121;49.810;6.418;2022-08-03T01:10:18;18.70;99.90
12115;DHT22;6121;49.810;6.418;2022-08-03T01:15:46;18.70;99.90
12115;DHT22;6121;49.810;6.418;2022-08-03T01:18:24;18.60;99.90
12115;DHT22;6121;49.810;6.418;2022-08-03T01:20:55;18.30;99.90
12115;DHT22;6121;49.810;6.418;2022-08-03T01:23:58;18.30;99.90
12115;DHT22;6121;49.810;6.418;2022-08-03T01:26:47;18.20;99.90
12115;DHT22;6121;49.810;6.418;2022-08-03T01:32:04;18.40;99.90
12115;DHT22;6121;49.810;6.418;2022-08-03T01:34:38;18.30;99.90
12115;DHT22;6121;49.810;6.418;2022-08-03T01:37:06;18.30;99.90
12115;DHT22;6121;49.810;6.418;2022-08-03T01:39:35;18.20;99.90
12115;DHT22;6121;49.810;6.418;2022-08-03T01:42:05;18.10;99.90
12115;DHT22;6121;49.810;6.418;2022-08-03T01:44:37;18.30;99.90
12115;DHT22;6121;49.810;6.418;2022-08-03T01:47:05;18.30;99.90
12115;DHT22;6121;49.810;6.418;2022-08-03T01:49:36;18.10;99.90
12115;DHT22;6121;49.810;6.418;2022-08-03T01:52:04;18.10;99.90
12115;DHT22;6121;49.810;6.418;2022-08-03T01:54:35;18.10;99.90
12115;DHT22;6121;49.810;6.418;2022-08-03T01:57:02;18.20;99.90
12115;DHT22;6121;49.810;6.418;2022-08-03T01:59:28;18.50;99.90
12115;DHT22;6121;49.810;6.418;2022-08-03T02:01:55;18.40;99.90
12115;DHT22;6121;49.810;6.418;2022-08-03T02:04:22;18.20;99.90
12115;DHT22;6121;49.810;6.418;2022-08-03T02:06:49;18.00;99.90
12115;DHT22;6121;49.810;6.418;2022-08-03T02:09:17;17.90;99.90
12115;DHT22;6121;49.810;6.418;2022-08-03T02:11:45;17.70;99.90
12115;DHT22;6121;49.810;6.418;2022-08-03T02:14:12;17.80;99.90
12115;DHT22;6121;49.810;6.418;2022-08-03T02:16:38;17.90;99.90
12115;DHT22;6121;49.810;6.418;2022-08-03T02:19:05;17.90;99.90
12115;DHT22;6121;49.810;6.418;2022-08-03T02:21:35;17.80;99.90
12115;DHT22;6121;49.810;6.418;2022-08-03T02:24:01;17.50;99.90
12115;DHT22;6121;49.810;6.418;2022-08-03T02:26:28;17.50;99.90
12115;DHT22;6121;49.810;6.418;2022-08-03T02:28:56;17.80;99.90
12115;DHT22;6121;49.810;6.418;2022-08-03T02:31:26;17.80;99.90
12115;DHT22;6121;49.810;6.418;2022-08-03T02:33:56;17.90;99.90
12115;DHT22;6121;49.810;6.418;2022-08-03T02:36:27;17.70;99.90
12115;DHT22;6121;49.810;6.418;2022-08-03T02:38:58;17.60;99.90
12115;DHT22;6121;49.810;6.418;2022-08-03T02:41:28;17.70;99.90
12115;DHT22;6121;49.810;6.418;2022-08-03T02:43:57;17.70;99.90
12115;DHT22;6121;49.810;6.418;2022-08-03T02:46:28;17.50;99.90
12115;DHT22;6121;49.810;6.418;2022-08-03T02:48:55;17.40;99.90
12115;DHT22;6121;49.810;6.418;2022-08-03T02:51:21;17.30;99.90
12115;DHT22;6121;49.810;6.418;2022-08-03T02:53:47;17.40;99.90
12115;DHT22;6121;49.810;6.418;2022-08-03T02:56:13;17.40;99.90
12115;DHT22;6121;49.810;6.418;2022-08-03T02:58:42;17.40;99.90
12115;DHT22;6121;49.810;6.418;2022-08-03T03:01:09;17.30;99.90
12115;DHT22;6121;49.810;6.418;2022-08-03T03:03:35;17.30;99.90
12115;DHT22;6121;49.810;6.418;2022-08-03T03:06:02;17.10;99.90
12115;DHT22;6121;49.810;6.418;2022-08-03T03:08:28;17.20;99.90
12115;DHT22;6121;49.810;6.418;2022-08-03T03:10:59;17.20;99.90
12115;DHT22;6121;49.810;6.418;2022-08-03T03:13:27;17.20;99.90
12115;DHT22;6121;49.810;6.418;2022-08-03T03:15:53;17.10;99.90
12115;DHT22;6121;49.810;6.418;2022-08-03T03:18:21;17.00;99.90
12115;DHT22;6121;49.810;6.418;2022-08-03T03:20:48;17.00;99.90
12115;DHT22;6121;49.810;6.418;2022-08-03T03:23:15;17.00;99.90
12115;DHT22;6121;49.810;6.418;2022-08-03T03:25:41;16.90;99.90
12115;DHT22;6121;49.810;6.418;2022-08-03T03:28:08;16.90;99.90
12115;DHT22;6121;49.810;6.418;2022-08-03T03:30:34;16.80;99.90
12115;DHT22;6121;49.810;6.418;2022-08-03T03:33:01;16.80;99.90
12115;DHT22;6121;49.810;6.418;2022-08-03T03:35:27;16.70;99.90
12115;DHT22;6121;49.810;6.418;2022-08-03T03:37:53;16.70;99.90
12115;DHT22;6121;49.810;6.418;2022-08-03T03:40:20;16.80;99.90
12115;DHT22;6121;49.810;6.418;2022-08-03T03:42:46;16.90;99.90
12115;DHT22;6121;49.810;6.418;2022-08-03T03:45:12;17.00;99.90
12115;DHT22;6121;49.810;6.418;2022-08-03T03:47:37;17.10;99.90
12115;DHT22;6121;49.810;6.418;2022-08-03T03:50:04;17.10;99.90
12115;DHT22;6121;49.810;6.418;2022-08-03T03:52:31;17.20;99.90
12115;DHT22;6121;49.810;6.418;2022-08-03T03:54:57;17.20;99.90
12115;DHT22;6121;49.810;6.418;2022-08-03T03:57:22;17.10;99.90
12115;DHT22;6121;49.810;6.418;2022-08-03T03:59:48;17.00;99.90
12115;DHT22;6121;49.810;6.418;2022-08-03T04:02:14;17.00;99.90
12115;DHT22;6121;49.810;6.418;2022-08-03T04:04:39;16.90;99.90
12115;DHT22;6121;49.810;6.418;2022-08-03T04:07:25;17.00;99.90
12115;DHT22;6121;49.810;6.418;2022-08-03T04:10:16;17.00;99.90
12115;DHT22;6121;49.810;6.418;2022-08-03T04:13:05;16.90;99.90
12115;DHT22;6121;49.810;6.418;2022-08-03T04:15:32;16.90;99.90
12115;DHT22;6121;49.810;6.418;2022-08-03T04:17:59;16.80;99.90
12115;DHT22;6121;49.810;6.418;2022-08-03T04:20:30;16.70;99.90
12115;DHT22;6121;49.810;6.418;2022-08-03T04:22:57;16.80;99.90
12115;DHT22;6121;49.810;6.418;2022-08-03T04:25:29;16.90;99.90
12115;DHT22;6121;49.810;6.418;2022-08-03T04:27:57;16.90;99.90
12115;DHT22;6121;49.810;6.418;2022-08-03T04:30:29;17.10;99.90
12115;DHT22;6121;49.810;6.418;2022-08-03T04:32:56;17.00;99.90
12115;DHT22;6121;49.810;6.418;2022-08-03T04:35:30;17.00;99.90
12115;DHT22;6121;49.810;6.418;2022-08-03T04:38:00;16.80;99.90
12115;DHT22;6121;49.810;6.418;2022-08-03T04:40:35;16.80;99.90
12115;DHT22;6121;49.810;6.418;2022-08-03T04:43:01;16.80;99.90
12115;DHT22;6121;49.810;6.418;2022-08-03T04:45:29;17.00;99.90
12115;DHT22;6121;49.810;6.418;2022-08-03T04:47:56;17.20;99.90
12115;DHT22;6121;49.810;6.418;2022-08-03T04:50:22;17.40;99.90
12115;DHT22;6121;49.810;6.418;2022-08-03T04:52:49;17.30;99.90
12115;DHT22;6121;49.810;6.418;2022-08-03T04:55:28;17.30;99.90
12115;DHT22;6121;49.810;6.418;2022-08-03T04:57:54;17.10;99.90
12115;DHT22;6121;49.810;6.418;2022-08-03T05:00:20;16.90;99.90
12115;DHT22;6121;49.810;6.418;2022-08-03T05:02:46;17.00;99.90
12115;DHT22;6121;49.810;6.418;2022-08-03T05:05:11;17.20;99.90
12115;DHT22;6121;49.810;6.418;2022-08-03T05:07:37;17.30;99.90
12115;DHT22;6121;49.810;6.418;2022-08-03T05:10:05;17.40;99.90
12115;DHT22;6121;49.810;6.418;2022-08-03T05:12:31;17.40;99.90
12115;DHT22;6121;49.810;6.418;2022-08-03T05:14:57;17.50;99.90
12115;DHT22;6121;49.810;6.418;2022-08-03T05:17:22;17.60;99.90
12115;DHT22;6121;49.810;6.418;2022-08-03T05:19:48;17.80;99.90
12115;DHT22;6121;49.810;6.418;2022-08-03T05:22:14;17.90;99.90
12115;DHT22;6121;49.810;6.418;2022-08-03T05:24:39;17.80;99.90
12115;DHT22;6121;49.810;6.418;2022-08-03T05:27:05;17.70;99.90
12115;DHT22;6121;49.810;6.418;2022-08-03T05:29:30;18.00;99.90
12115;DHT22;6121;49.810;6.418;2022-08-03T05:31:56;18.10;99.90
12115;DHT22;6121;49.810;6.418;2022-08-03T05:34:21;18.20;99.90
12115;DHT22;6121;49.810;6.418;2022-08-03T05:36:47;18.40;99.90
12115;DHT22;6121;49.810;6.418;2022-08-03T05:39:13;18.60;99.90
12115;DHT22;6121;49.810;6.418;2022-08-03T05:41:38;18.80;99.90
12115;DHT22;6121;49.810;6.418;2022-08-03T05:44:04;19.00;99.90
12115;DHT22;6121;49.810;6.418;2022-08-03T05:46:30;18.90;99.90
12115;DHT22;6121;49.810;6.418;2022-08-03T05:48:55;18.80;99.90
12115;DHT22;6121;49.810;6.418;2022-08-03T05:51:21;19.00;99.90
12115;DHT22;6121;49.810;6.418;2022-08-03T05:53:47;19.30;99.90
12115;DHT22;6121;49.810;6.418;2022-08-03T05:56:12;19.40;99.90
12115;DHT22;6121;49.810;6.418;2022-08-03T05:58:38;19.60;99.90
12115;DHT22;6121;49.810;6.418;2022-08-03T06:01:04;19.80;99.90
12115;DHT22;6121;49.810;6.418;2022-08-03T06:03:29;19.70;99.90
12115;DHT22;6121;49.810;6.418;2022-08-03T06:05:55;19.50;99.90
12115;DHT22;6121;49.810;6.418;2022-08-03T06:08:21;19.80;99.90
12115;DHT22;6121;49.810;6.418;2022-08-03T06:10:47;20.10;99.90
12115;DHT22;6121;49.810;6.418;2022-08-03T06:13:13;19.80;99.90
12115;DHT22;6121;49.810;6.418;2022-08-03T06:15:38;20.10;99.90
12115;DHT22;6121;49.810;6.418;2022-08-03T06:18:04;20.50;99.90
12115;DHT22;6121;49.810;6.418;2022-08-03T06:20:29;20.50;99.90
12115;DHT22;6121;49.810;6.418;2022-08-03T06:22:55;20.40;99.90
12115;DHT22;6121;49.810;6.418;2022-08-03T06:25:21;20.60;99.90
12115;DHT22;6121;49.810;6.418;2022-08-03T06:27:47;20.70;99.90
12115;DHT22;6121;49.810;6.418;2022-08-03T06:30:12;21.10;99.90
12115;DHT22;6121;49.810;6.418;2022-08-03T06:32:39;21.20;99.90
12115;DHT22;6121;49.810;6.418;2022-08-03T06:35:06;21.40;99.90
12115;DHT22;6121;49.810;6.418;2022-08-03T06:37:46;21.70;99.90
12115;DHT22;6121;49.810;6.418;2022-08-03T06:40:13;21.90;99.90
12115;DHT22;6121;49.810;6.418;2022-08-03T06:42:39;21.90;99.90
12115;DHT22;6121;49.810;6.418;2022-08-03T06:45:06;22.00;99.90
12115;DHT22;6121;49.810;6.418;2022-08-03T06:47:33;22.20;99.90
12115;DHT22;6121;49.810;6.418;2022-08-03T06:49:59;22.50;99.90
12115;DHT22;6121;49.810;6.418;2022-08-03T06:52:25;22.60;99.90
12115;DHT22;6121;49.810;6.418;2022-08-03T06:54:54;22.80;99.90
12115;DHT22;6121;49.810;6.418;2022-08-03T06:57:20;23.00;99.90
12115;DHT22;6121;49.810;6.418;2022-08-03T06:59:45;23.20;99.90
12115;DHT22;6121;49.810;6.418;2022-08-03T07:02:11;23.30;99.90
12115;DHT22;6121;49.810;6.418;2022-08-03T07:04:36;23.40;99.90
12115;DHT22;6121;49.810;6.418;2022-08-03T07:07:02;23.50;99.90
12115;DHT22;6121;49.810;6.418;2022-08-03T07:09:28;23.50;99.90
12115;DHT22;6121;49.810;6.418;2022-08-03T07:11:54;23.80;99.90
12115;DHT22;6121;49.810;6.418;2022-08-03T07:14:20;24.00;99.90
12115;DHT22;6121;49.810;6.418;2022-08-03T07:16:46;24.20;99.90
12115;DHT22;6121;49.810;6.418;2022-08-03T07:19:11;24.20;99.90
12115;DHT22;6121;49.810;6.418;2022-08-03T07:21:37;24.40;99.90
12115;DHT22;6121;49.810;6.418;2022-08-03T07:24:03;24.60;99.90
12115;DHT22;6121;49.810;6.418;2022-08-03T07:26:29;24.40;99.90
12115;DHT22;6121;49.810;6.418;2022-08-03T07:28:54;24.50;99.90
12115;DHT22;6121;49.810;6.418;2022-08-03T07:31:20;24.60;99.50
12115;DHT22;6121;49.810;6.418;2022-08-03T07:33:45;24.70;99.60
12115;DHT22;6121;49.810;6.418;2022-08-03T07:36:11;25.20;99.80
12115;DHT22;6121;49.810;6.418;2022-08-03T07:38:37;25.60;98.90
12115;DHT22;6121;49.810;6.418;2022-08-03T07:41:03;25.80;98.60
12115;DHT22;6121;49.810;6.418;2022-08-03T07:43:28;26.00;98.20
12115;DHT22;6121;49.810;6.418;2022-08-03T07:45:54;26.20;97.80
12115;DHT22;6121;49.810;6.418;2022-08-03T07:48:19;26.40;97.50
12115;DHT22;6121;49.810;6.418;2022-08-03T07:50:45;26.60;97.10
12115;DHT22;6121;49.810;6.418;2022-08-03T07:53:11;26.70;97.00
12115;DHT22;6121;49.810;6.418;2022-08-03T07:55:37;26.90;96.40
12115;DHT22;6121;49.810;6.418;2022-08-03T07:58:03;26.60;96.30
12115;DHT22;6121;49.810;6.418;2022-08-03T08:00:29;26.70;96.30
12115;DHT22;6121;49.810;6.418;2022-08-03T08:02:55;27.10;95.80
12115;DHT22;6121;49.810;6.418;2022-08-03T08:05:21;27.40;95.50
12115;DHT22;6121;49.810;6.418;2022-08-03T08:07:47;27.60;95.30
12115;DHT22;6121;49.810;6.418;2022-08-03T08:10:12;27.70;94.80
12115;DHT22;6121;49.810;6.418;2022-08-03T08:12:39;27.90;94.60
12115;DHT22;6121;49.810;6.418;2022-08-03T08:15:05;28.20;94.00
12115;DHT22;6121;49.810;6.418;2022-08-03T08:17:44;28.40;93.80
12115;DHT22;6121;49.810;6.418;2022-08-03T08:20:11;28.60;93.60
12115;DHT22;6121;49.810;6.418;2022-08-03T08:22:40;28.60;93.50
12115;DHT22;6121;49.810;6.418;2022-08-03T08:25:05;28.80;93.10
12115;DHT22;6121;49.810;6.418;2022-08-03T08:27:31;29.00;92.20
12115;DHT22;6121;49.810;6.418;2022-08-03T08:29:57;29.00;92.30
12115;DHT22;6121;49.810;6.418;2022-08-03T08:32:22;29.10;91.90
12115;DHT22;6121;49.810;6.418;2022-08-03T08:34:48;29.30;91.50
12115;DHT22;6121;49.810;6.418;2022-08-03T08:37:14;29.60;91.30
12115;DHT22;6121;49.810;6.418;2022-08-03T08:39:39;29.70;91.10
12115;DHT22;6121;49.810;6.418;2022-08-03T08:42:05;29.80;90.40
12115;DHT22;6121;49.810;6.418;2022-08-03T08:44:30;29.90;90.10
12115;DHT22;6121;49.810;6.418;2022-08-03T08:46:56;30.10;89.10
12115;DHT22;6121;49.810;6.418;2022-08-03T08:49:26;29.90;89.30
12115;DHT22;6121;49.810;6.418;2022-08-03T08:51:54;30.00;89.30
12115;DHT22;6121;49.810;6.418;2022-08-03T08:54:21;30.50;88.30
12115;DHT22;6121;49.810;6.418;2022-08-03T08:56:49;30.70;86.80
12115;DHT22;6121;49.810;6.418;2022-08-03T08:59:16;30.60;85.60
12115;DHT22;6121;49.810;6.418;2022-08-03T09:01:41;30.80;85.40
12115;DHT22;6121;49.810;6.418;2022-08-03T09:04:07;31.10;84.50
12115;DHT22;6121;49.810;6.418;2022-08-03T09:06:34;31.00;83.30
12115;DHT22;6121;49.810;6.418;2022-08-03T09:08:59;30.90;83.30
12115;DHT22;6121;49.810;6.418;2022-08-03T09:11:25;31.00;83.70
12115;DHT22;6121;49.810;6.418;2022-08-03T09:13:51;31.20;83.10
12115;DHT22;6121;49.810;6.418;2022-08-03T09:16:19;31.40;82.50
12115;DHT22;6121;49.810;6.418;2022-08-03T09:18:51;31.60;82.60
12115;DHT22;6121;49.810;6.418;2022-08-03T09:21:25;31.60;81.10
12115;DHT22;6121;49.810;6.418;2022-08-03T09:23:55;31.80;80.70
12115;DHT22;6121;49.810;6.418;2022-08-03T09:26:26;32.00;78.10
12115;DHT22;6121;49.810;6.418;2022-08-03T09:28:56;32.20;77.10
12115;DHT22;6121;49.810;6.418;2022-08-03T09:31:46;32.70;78.10
12115;DHT22;6121;49.810;6.418;2022-08-03T09:34:15;33.00;76.90
12115;DHT22;6121;49.810;6.418;2022-08-03T09:36:42;33.10;74.70
12115;DHT22;6121;49.810;6.418;2022-08-03T09:39:10;33.30;73.70
12115;DHT22;6121;49.810;6.418;2022-08-03T09:41:42;33.40;72.60
12115;DHT22;6121;49.810;6.418;2022-08-03T09:44:08;33.20;72.10
12115;DHT22;6121;49.810;6.418;2022-08-03T09:46:53;33.70;72.90
12115;DHT22;6121;49.810;6.418;2022-08-03T09:49:20;33.80;71.70
12115;DHT22;6121;49.810;6.418;2022-08-03T09:51:47;34.00;72.60
12115;DHT22;6121;49.810;6.418;2022-08-03T09:54:26;34.30;72.30
12115;DHT22;6121;49.810;6.418;2022-08-03T09:56:52;34.60;72.70
12115;DHT22;6121;49.810;6.418;2022-08-03T09:59:26;34.40;70.30
12115;DHT22;6121;49.810;6.418;2022-08-03T10:01:53;34.30;69.80
12115;DHT22;6121;49.810;6.418;2022-08-03T10:04:19;34.40;69.90
12115;DHT22;6121;49.810;6.418;2022-08-03T10:06:59;34.50;69.40
12115;DHT22;6121;49.810;6.418;2022-08-03T10:09:25;34.80;69.90
12115;DHT22;6121;49.810;6.418;2022-08-03T10:11:51;34.70;68.90
12115;DHT22;6121;49.810;6.418;2022-08-03T10:14:17;34.70;68.70
12115;DHT22;6121;49.810;6.418;2022-08-03T10:16:44;34.30;68.00
12115;DHT22;6121;49.810;6.418;2022-08-03T10:19:10;34.10;68.40
12115;DHT22;6121;49.810;6.418;2022-08-03T10:21:41;34.40;68.80
12115;DHT22;6121;49.810;6.418;2022-08-03T10:24:08;34.40;68.00
12115;DHT22;6121;49.810;6.418;2022-08-03T10:26:39;34.40;68.00
12115;DHT22;6121;49.810;6.418;2022-08-03T10:29:16;34.30;67.60
12115;DHT22;6121;49.810;6.418;2022-08-03T10:31:44;34.60;67.00
12115;DHT22;6121;49.810;6.418;2022-08-03T10:34:21;34.70;66.60
12115;DHT22;6121;49.810;6.418;2022-08-03T10:36:48;34.90;66.80
12115;DHT22;6121;49.810;6.418;2022-08-03T10:39:17;35.10;66.40
12115;DHT22;6121;49.810;6.418;2022-08-03T10:41:44;35.00;67.10
12115;DHT22;6121;49.810;6.418;2022-08-03T10:44:19;35.20;67.00
12115;DHT22;6121;49.810;6.418;2022-08-03T10:46:46;35.20;65.70
12115;DHT22;6121;49.810;6.418;2022-08-03T10:49:19;35.50;65.80
12115;DHT22;6121;49.810;6.418;2022-08-03T10:51:47;35.50;65.60
12115;DHT22;6121;49.810;6.418;2022-08-03T10:57:00;35.80;63.80
12115;DHT22;6121;49.810;6.418;2022-08-03T11:00:01;35.50;64.30
12115;DHT22;6121;49.810;6.418;2022-08-03T11:05:27;35.90;63.80
12115;DHT22;6121;49.810;6.418;2022-08-03T11:08:34;35.90;63.70
12115;DHT22;6121;49.810;6.418;2022-08-03T11:16:31;35.90;62.90
12115;DHT22;6121;49.810;6.418;2022-08-03T11:19:09;35.80;62.20
12115;DHT22;6121;49.810;6.418;2022-08-03T11:30:09;35.90;62.20
12115;DHT22;6121;49.810;6.418;2022-08-03T11:43:02;35.70;60.20
12115;DHT22;6121;49.810;6.418;2022-08-03T11:45:29;35.60;61.20
12115;DHT22;6121;49.810;6.418;2022-08-03T11:47:55;35.70;60.80
12115;DHT22;6121;49.810;6.418;2022-08-03T11:50:23;35.80;61.40
12115;DHT22;6121;49.810;6.418;2022-08-03T11:52:49;36.00;61.50
12115;DHT22;6121;49.810;6.418;2022-08-03T11:55:17;36.20;61.00
12115;DHT22;6121;49.810;6.418;2022-08-03T11:57:45;36.20;61.10
12115;DHT22;6121;49.810;6.418;2022-08-03T12:00:28;36.20;60.60
12115;DHT22;6121;49.810;6.418;2022-08-03T12:03:00;35.90;60.00
12115;DHT22;6121;49.810;6.418;2022-08-03T12:05:33;35.80;60.10
12115;DHT22;6121;49.810;6.418;2022-08-03T12:07:59;35.30;59.80
12115;DHT22;6121;49.810;6.418;2022-08-03T12:10:24;35.30;60.50
12115;DHT22;6121;49.810;6.418;2022-08-03T12:13:00;35.20;60.50
12115;DHT22;6121;49.810;6.418;2022-08-03T12:15:29;35.20;60.70
12115;DHT22;6121;49.810;6.418;2022-08-03T12:17:55;35.40;60.60
12115;DHT22;6121;49.810;6.418;2022-08-03T12:20:25;35.40;60.50
12115;DHT22;6121;49.810;6.418;2022-08-03T12:22:50;35.20;59.60
12115;DHT22;6121;49.810;6.418;2022-08-03T12:25:26;34.90;60.50
12115;DHT22;6121;49.810;6.418;2022-08-03T12:27:53;34.90;60.30
12115;DHT22;6121;49.810;6.418;2022-08-03T12:30:19;34.80;60.50
12115;DHT22;6121;49.810;6.418;2022-08-03T12:32:45;34.70;60.60
12115;DHT22;6121;49.810;6.418;2022-08-03T12:35:21;34.90;61.70
12115;DHT22;6121;49.810;6.418;2022-08-03T12:37:51;35.00;60.50
12115;DHT22;6121;49.810;6.418;2022-08-03T12:40:26;34.90;60.70
12115;DHT22;6121;49.810;6.418;2022-08-03T12:42:52;35.00;60.80
12115;DHT22;6121;49.810;6.418;2022-08-03T12:47:58;35.10;60.50
12115;DHT22;6121;49.810;6.418;2022-08-03T12:52:52;34.80;59.10
12115;DHT22;6121;49.810;6.418;2022-08-03T12:55:20;34.70;59.50
12115;DHT22;6121;49.810;6.418;2022-08-03T12:57:46;34.80;58.90
12115;DHT22;6121;49.810;6.418;2022-08-03T13:00:16;34.70;58.50
12115;DHT22;6121;49.810;6.418;2022-08-03T13:02:43;34.60;59.00
12115;DHT22;6121;49.810;6.418;2022-08-03T13:05:17;34.50;59.90
12115;DHT22;6121;49.810;6.418;2022-08-03T13:07:44;34.40;58.90
12115;DHT22;6121;49.810;6.418;2022-08-03T13:10:11;34.40;60.00
12115;DHT22;6121;49.810;6.418;2022-08-03T13:12:47;34.40;60.00
12115;DHT22;6121;49.810;6.418;2022-08-03T13:15:13;34.30;59.50
12115;DHT22;6121;49.810;6.418;2022-08-03T13:17:39;34.20;60.50
12115;DHT22;6121;49.810;6.418;2022-08-03T13:20:05;34.10;60.00
12115;DHT22;6121;49.810;6.418;2022-08-03T13:22:31;34.20;60.20
12115;DHT22;6121;49.810;6.418;2022-08-03T13:24:58;34.30;61.10
12115;DHT22;6121;49.810;6.418;2022-08-03T13:27:26;34.40;60.40
12115;DHT22;6121;49.810;6.418;2022-08-03T13:29:53;34.30;60.00
12115;DHT22;6121;49.810;6.418;2022-08-03T13:32:19;34.30;59.30
12115;DHT22;6121;49.810;6.418;2022-08-03T13:34:45;34.20;59.20
12115;DHT22;6121;49.810;6.418;2022-08-03T13:37:12;33.90;60.10
12115;DHT22;6121;49.810;6.418;2022-08-03T13:39:38;34.00;60.80
12115;DHT22;6121;49.810;6.418;2022-08-03T13:42:04;34.10;60.40
12115;DHT22;6121;49.810;6.418;2022-08-03T13:44:31;34.10;60.00
12115;DHT22;6121;49.810;6.418;2022-08-03T13:46:57;34.00;60.70
12115;DHT22;6121;49.810;6.418;2022-08-03T13:49:25;33.90;60.20
12115;DHT22;6121;49.810;6.418;2022-08-03T13:51:51;33.90;60.00
12115;DHT22;6121;49.810;6.418;2022-08-03T13:54:17;33.80;59.90
12115;DHT22;6121;49.810;6.418;2022-08-03T13:56:43;33.90;59.40
12115;DHT22;6121;49.810;6.418;2022-08-03T13:59:14;33.90;59.60
12115;DHT22;6121;49.810;6.418;2022-08-03T14:01:40;33.90;60.40
12115;DHT22;6121;49.810;6.418;2022-08-03T14:04:05;34.00;60.50
12115;DHT22;6121;49.810;6.418;2022-08-03T14:06:31;34.00;59.10
12115;DHT22;6121;49.810;6.418;2022-08-03T14:08:57;34.10;59.30
12115;DHT22;6121;49.810;6.418;2022-08-03T14:11:22;34.10;60.20
12115;DHT22;6121;49.810;6.418;2022-08-03T14:13:48;34.10;60.20
12115;DHT22;6121;49.810;6.418;2022-08-03T14:16:14;34.10;59.60
12115;DHT22;6121;49.810;6.418;2022-08-03T14:18:40;34.20;60.10
12115;DHT22;6121;49.810;6.418;2022-08-03T14:21:06;34.20;59.60
12115;DHT22;6121;49.810;6.418;2022-08-03T14:23:32;34.30;60.00
12115;DHT22;6121;49.810;6.418;2022-08-03T14:25:58;34.30;59.60
12115;DHT22;6121;49.810;6.418;2022-08-03T14:28:24;34.30;58.10
12115;DHT22;6121;49.810;6.418;2022-08-03T14:30:54;34.30;58.10
12115;DHT22;6121;49.810;6.418;2022-08-03T14:33:20;34.30;57.70
12115;DHT22;6121;49.810;6.418;2022-08-03T14:35:46;34.20;57.60
12115;DHT22;6121;49.810;6.418;2022-08-03T14:38:12;34.20;56.90
12115;DHT22;6121;49.810;6.418;2022-08-03T14:40:38;34.20;56.80
12115;DHT22;6121;49.810;6.418;2022-08-03T14:43:04;34.20;56.90
12115;DHT22;6121;49.810;6.418;2022-08-03T14:45:29;34.10;56.80
12115;DHT22;6121;49.810;6.418;2022-08-03T14:47:55;34.10;57.20
12115;DHT22;6121;49.810;6.418;2022-08-03T14:50:21;34.10;57.60
12115;DHT22;6121;49.810;6.418;2022-08-03T14:52:47;34.00;57.50
12115;DHT22;6121;49.810;6.418;2022-08-03T14:55:13;34.00;56.90
12115;DHT22;6121;49.810;6.418;2022-08-03T14:57:38;34.10;58.10
12115;DHT22;6121;49.810;6.418;2022-08-03T15:00:04;34.20;57.80
12115;DHT22;6121;49.810;6.418;2022-08-03T15:02:30;34.20;57.70
12115;DHT22;6121;49.810;6.418;2022-08-03T15:04:57;34.10;57.80
12115;DHT22;6121;49.810;6.418;2022-08-03T15:07:22;34.20;58.00
12115;DHT22;6121;49.810;6.418;2022-08-03T15:09:48;34.10;57.40
12115;DHT22;6121;49.810;6.418;2022-08-03T15:12:14;34.10;57.10
12115;DHT22;6121;49.810;6.418;2022-08-03T15:14:39;34.10;56.70
12115;DHT22;6121;49.810;6.418;2022-08-03T15:17:05;34.10;56.80
12115;DHT22;6121;49.810;6.418;2022-08-03T15:19:31;34.00;56.70
12115;DHT22;6121;49.810;6.418;2022-08-03T15:21:57;33.90;56.90
12115;DHT22;6121;49.810;6.418;2022-08-03T15:24:23;34.00;58.20
12115;DHT22;6121;49.810;6.418;2022-08-03T15:26:50;34.10;58.90
12115;DHT22;6121;49.810;6.418;2022-08-03T15:29:16;33.90;57.30
12115;DHT22;6121;49.810;6.418;2022-08-03T15:31:42;33.90;58.00
12115;DHT22;6121;49.810;6.418;2022-08-03T15:34:09;34.00;58.80
12115;DHT22;6121;49.810;6.418;2022-08-03T15:36:36;34.10;58.40
12115;DHT22;6121;49.810;6.418;2022-08-03T15:39:02;34.10;59.80
12115;DHT22;6121;49.810;6.418;2022-08-03T15:41:28;33.90;60.50
12115;DHT22;6121;49.810;6.418;2022-08-03T15:43:54;33.90;58.30
12115;DHT22;6121;49.810;6.418;2022-08-03T15:46:19;33.90;58.40
12115;DHT22;6121;49.810;6.418;2022-08-03T15:48:45;33.90;57.70
12115;DHT22;6121;49.810;6.418;2022-08-03T15:51:11;33.70;57.10
12115;DHT22;6121;49.810;6.418;2022-08-03T15:53:37;33.70;57.10
12115;DHT22;6121;49.810;6.418;2022-08-03T15:56:03;33.70;57.20
12115;DHT22;6121;49.810;6.418;2022-08-03T15:58:29;33.80;58.00
12115;DHT22;6121;49.810;6.418;2022-08-03T16:00:59;33.80;58.00
12115;DHT22;6121;49.810;6.418;2022-08-03T16:03:26;33.80;58.60
12115;DHT22;6121;49.810;6.418;2022-08-03T16:05:53;33.80;58.20
12115;DHT22;6121;49.810;6.418;2022-08-03T16:08:19;33.90;57.20
12115;DHT22;6121;49.810;6.418;2022-08-03T16:10:46;33.80;58.00
12115;DHT22;6121;49.810;6.418;2022-08-03T16:13:12;33.80;57.40
12115;DHT22;6121;49.810;6.418;2022-08-03T16:15:37;33.80;56.90
12115;DHT22;6121;49.810;6.418;2022-08-03T16:18:04;33.80;57.80
12115;DHT22;6121;49.810;6.418;2022-08-03T16:20:30;33.70;59.00
12115;DHT22;6121;49.810;6.418;2022-08-03T16:22:55;33.70;57.70
12115;DHT22;6121;49.810;6.418;2022-08-03T16:25:21;33.70;57.30
12115;DHT22;6121;49.810;6.418;2022-08-03T16:27:46;33.70;58.40
12115;DHT22;6121;49.810;6.418;2022-08-03T16:30:14;33.70;58.40
12115;DHT22;6121;49.810;6.418;2022-08-03T16:32:41;33.60;58.30